< Cyclone 199104 1991 Season Cyclone 199106 >
Cyclone 199105 (KELVIN)
General InformationTrack Information on Google MapsDetailed Wind InformationList of All Images || ResourceGoogle EarthGE AnimationAtom FeedGeoJSON
Detalied Best Track (Time Zone = UTC)
Year Month Day Hour Lat. Long. Pressure (hPa) Wind (kt) Class Image Chart
1991 2 24 06 -11.6 141.9 999 31 2 Image --
1991 2 24 08 -11.5 142.0 999 31 2 Image --
1991 2 24 10 -11.7 143.4 999 31 2 Image --
1991 2 24 12 -12.3 143.8 999 31 2 Image --
1991 2 24 16 -13.3 144.7 1000 31 2 Image --
1991 2 24 18 -14.0 146.9 1000 31 2 Image --
1991 2 25 00 -14.2 149.5 1000 33 2 Image --
1991 2 25 04 -15.4 149.0 993 33 2 Image --
1991 2 25 06 -15.4 149.4 993 41 3 Image --
1991 2 25 07 -15.4 149.7 993 41 3 Image --
1991 2 25 10 -16.5 150.5 985 54 4 Image --
1991 2 25 12 -16.5 150.6 985 54 4 Image --
1991 2 25 13 -16.5 150.7 985 54 4 Image --
1991 2 25 17 -16.2 150.8 985 54 4 Image --
1991 2 25 18 -16.4 150.8 985 54 4 Image --
1991 2 25 20 -16.7 150.9 985 54 4 Image --
1991 2 25 23 -16.7 151.3 985 54 4 Image --
1991 2 26 00 -16.9 151.3 985 54 4 Image --
1991 2 26 05 -17.5 151.6 985 54 4 Image --
1991 2 26 06 -17.5 151.5 984 54 4 Image --
1991 2 26 08 -17.5 151.3 982 54 4 Image --
1991 2 26 12 -16.7 150.8 984 54 4 Image --
1991 2 26 14 -16.5 150.8 982 54 4 Image --
1991 2 26 17 -16.5 150.6 980 54 4 Image --
1991 2 26 18 -16.4 150.4 980 54 4 Image --
1991 2 26 20 -16.1 149.7 980 54 4 Image --
1991 2 27 00 -16.1 150.1 980 54 4 Image --
1991 2 27 06 -15.9 150.5 980 54 4 Image --
1991 2 27 12 -15.4 150.4 983 54 4 Image --
1991 2 27 14 -15.1 150.3 983 51 4 Image --
1991 2 27 18 -14.9 150.7 983 51 4 Image --
1991 2 27 20 -14.9 150.6 983 51 4 Image --
1991 2 28 00 -15.1 150.7 983 51 4 Image --
1991 2 28 06 -15.3 149.8 985 51 4 Image --
1991 2 28 12 -15.3 149.8 985 51 4 Image --
1991 2 28 18 -15.3 149.8 985 51 4 Image --
1991 3 1 00 -15.5 150.2 985 51 4 Image --
1991 3 1 02 -15.5 150.0 985 51 4 Image --
1991 3 1 06 -15.2 149.7 987 45 3 Image --
1991 3 1 12 -15.1 149.3 990 41 3 Image --
1991 3 1 18 -15.0 149.6 992 41 3 Image --
1991 3 2 00 -15.0 150.1 994 41 3 Image --
1991 3 2 06 -14.9 150.1 994 41 3 Image --
1991 3 2 12 -15.0 150.2 994 41 3 Image --
1991 3 2 18 -15.0 150.2 994 41 3 Image --
1991 3 2 20 -15.1 150.4 994 45 3 Image --
1991 3 3 00 -14.6 150.4 993 45 3 Image --
1991 3 3 02 -14.5 150.2 990 51 4 Image --
1991 3 3 06 -14.4 150.3 983 54 4 Image --
1991 3 3 08 -14.3 150.3 983 54 4 Image --
1991 3 3 12 -14.3 150.4 983 54 4 Image --
1991 3 3 18 -14.4 150.4 983 54 4 Image --
1991 3 4 00 -14.1 150.2 983 54 4 Image --
1991 3 4 06 -14.9 150.0 983 54 4 Image --
1991 3 4 12 -13.8 149.9 983 54 4 Image --
1991 3 4 18 -13.8 149.9 988 45 3 Image --
1991 3 5 00 -13.7 149.8 990 45 3 Image --
1991 3 5 06 -13.6 149.5 992 45 3 Image --
1991 3 5 12 -13.9 149.8 992 41 3 Image --
1991 3 5 18 -14.6 150.0 996 41 3 Image --
< Cyclone 199104 1991 Season Cyclone 199106 >

Help